Hovedside
METAR-TAF:

METAR-TAF

Lufthavner :

Oljeplattform

Troll A, Norge

breddegrad: 60-38-42N, lengdegrad: 3-43-29E, høyde over havet: 20 m

Gjeldene værobservasjon

Denne rapporten ble laget for 25 minutter siden, klokken 20:50 UTC
Vind 30 kt fra Sør
Temperatur 5°C
Luftfuktighet 75%
Trykk 981 hPa
Sikt 10 km eller mer

METAR: ENQA 122050Z AUTO 18030KT 9999NDV FEW060/// BKN078/// BKN150/// 05/01 Q0981 W06/S4

Tid: 22:15 (21:15 UTC)


TAF: fraværende

Værobservasjoner og værvarsel for over 4000 flyplasser (METAR- og TAF-rapporter).

Tilgjengelige stasjoner er representert av de røde og gule prikkene på kartet.

Hold musepekeren over prikken for å se navnet på stasjonen.

Klikk så for å se værobservasjoner og -varsler.

For å forandre kartet kan du klikke på den grønne knappen med svart kryss for å zoome inn, på den grønne knappen med strek for å zoome ut, eller på de grønne pilene for å se tilstøtende kart.


METAR-TAF: